Map

Track Data

SID SEASON NUMBER BASIN SUBBASIN NAME ISO_TIME NATURE LAT LON WMO_WIND WMO_PRES WMO_AGENCY TRACK_TYPE DIST2LAND LANDFALL IFLAG USA_AGENCY USA_ATCF_ID USA_LAT USA_LON USA_RECORD USA_STATUS USA_WIND USA_PRES USA_SSHS USA_R34_NE USA_R34_SE USA_R34_SW USA_R34_NW USA_R50_NE USA_R50_SE USA_R50_SW USA_R50_NW USA_R64_NE USA_R64_SE USA_R64_SW USA_R64_NW USA_POCI USA_ROCI USA_RMW USA_EYE TOKYO_LAT TOKYO_LON TOKYO_GRADE TOKYO_WIND TOKYO_PRES TOKYO_R50_DIR TOKYO_R50_LONG TOKYO_R50_SHORT TOKYO_R30_DIR TOKYO_R30_LONG TOKYO_R30_SHORT TOKYO_LAND CMA_LAT CMA_LON CMA_CAT CMA_WIND CMA_PRES HKO_LAT HKO_LON HKO_CAT HKO_WIND HKO_PRES NEWDELHI_LAT NEWDELHI_LON NEWDELHI_GRADE NEWDELHI_WIND NEWDELHI_PRES NEWDELHI_CI NEWDELHI_DP NEWDELHI_POCI REUNION_LAT REUNION_LON REUNION_TYPE REUNION_WIND REUNION_PRES REUNION_TNUM REUNION_CI REUNION_RMW REUNION_R34_NE REUNION_R34_SE REUNION_R34_SW REUNION_R34_NW REUNION_R50_NE REUNION_R50_SE REUNION_R50_SW REUNION_R50_NW REUNION_R64_NE REUNION_R64_SE REUNION_R64_SW REUNION_R64_NW BOM_LAT BOM_LON BOM_TYPE BOM_WIND BOM_PRES BOM_TNUM BOM_CI BOM_RMW BOM_R34_NE BOM_R34_SE BOM_R34_SW BOM_R34_NW BOM_R50_NE BOM_R50_SE BOM_R50_SW BOM_R50_NW BOM_R64_NE BOM_R64_SE BOM_R64_SW BOM_R64_NW BOM_ROCI BOM_POCI BOM_EYE BOM_POS_METHOD BOM_PRES_METHOD NADI_LAT NADI_LON NADI_CAT NADI_WIND NADI_PRES WELLINGTON_LAT WELLINGTON_LON WELLINGTON_WIND WELLINGTON_PRES DS824_LAT DS824_LON DS824_STAGE DS824_WIND DS824_PRES TD9636_LAT TD9636_LON TD9636_STAGE TD9636_WIND TD9636_PRES TD9635_LAT TD9635_LON TD9635_WIND TD9635_PRES TD9635_ROCI NEUMANN_LAT NEUMANN_LON NEUMANN_CLASS NEUMANN_WIND NEUMANN_PRES MLC_LAT MLC_LON MLC_CLASS MLC_WIND MLC_PRES USA_GUST BOM_GUST BOM_GUST_PER REUNION_GUST REUNION_GUST_PER USA_SEAHGT USA_SEARAD_NE USA_SEARAD_SE USA_SEARAD_SW USA_SEARAD_NW STORM_SPEED STORM_DIR
1966234N18169 1966 59 WP MM BETTY 1966-08-21 12:00:00 TS 18.0000 169.000 1008 tokyo main 3028 2977 _OO___________ -1 18.0000 169.000 2 1008 0 0 0 18.0000 169.000 0 1008 19 277
1966234N18169 1966 59 WP MM BETTY 1966-08-21 15:00:00 TS 18.1134 168.017 main 2970 2928 _PP___________ -1 18.1134 168.017 2 1007 0 0 18.1134 168.017 0 1007 19 279
1966234N18169 1966 59 WP MM BETTY 1966-08-21 18:00:00 TS 18.3000 167.000 1006 tokyo main 2925 2893 _OO___________ -1 18.3000 167.000 2 1006 0 0 0 18.3000 167.000 0 1006 21 284
1966234N18169 1966 59 WP MM BETTY 1966-08-21 21:00:00 TS 18.6120 165.922 main 2887 2863 _PP___________ -1 18.6120 165.922 2 1006 0 0 18.6120 165.922 0 1006 22 289
1966234N18169 1966 59 WP MM BETTY 1966-08-22 00:00:00 TS 19.0000 164.800 1006 tokyo main 2862 2842 _OO___________ -1 19.0000 164.800 2 1006 0 0 0 19.0000 164.800 0 1006 23 291
1966234N18169 1966 59 WP MM BETTY 1966-08-22 03:00:00 TS 19.4135 163.702 main 2841 2763 _PP___________ -1 19.4135 163.702 2 1005 0 0 19.4135 163.702 0 1006 23 290
1966234N18169 1966 59 WP MM BETTY 1966-08-22 06:00:00 TS 19.8000 162.500 1004 tokyo main 2755 2644 _OO___________ -1 19.8000 162.500 2 1004 0 0 0 19.8000 162.500 0 1006 26 285
1966234N18169 1966 59 WP MM BETTY 1966-08-22 09:00:00 TS 20.0579 161.071 main 2628 2511 _PP___________ -1 20.0579 161.071 2 1005 0 0 20.0579 161.071 0 1006 28 280
1966234N18169 1966 59 WP MM BETTY 1966-08-22 12:00:00 TS 20.3000 159.600 1006 tokyo main 2504 2389 _OO___________ -1 20.3000 159.600 2 1006 0 0 0 20.3000 159.600 0 1006 27 283
1966234N18169 1966 59 WP MM BETTY 1966-08-22 15:00:00 TS 20.6494 158.233 main 2381 2271 _PP___________ -1 20.6494 158.233 2 1006 0 0 20.6494 158.233 0 1006 25 286
1966234N18169 1966 59 WP MM BETTY 1966-08-22 18:00:00 TS 21.0000 157.000 1006 tokyo main 2264 2170 _OO___________ -1 21.0000 157.000 2 1006 0 0 0 21.0000 157.000 0 1006 23 286
1966234N18169 1966 59 WP MM BETTY 1966-08-22 21:00:00 TS 21.2792 155.910 main 2164 2086 _PP___________ -1 21.2716 155.917 2 1007 0 0 21.2868 155.902 0 1007 19 285
1966234N18169 1966 59 WP MM BETTY 1966-08-23 00:00:00 TS 21.5000 155.000 1008 tokyo main 2086 2023 _OO___________ -1 21.5000 155.000 2 1008 0 0 0 21.5000 155.000 0 1008 16 285
1966234N18169 1966 59 WP MM BETTY 1966-08-23 03:00:00 TS 21.6829 154.247 main 2017 1970 _PP___________ -1 21.7369 154.190 2 1006 0 0 21.6289 154.305 0 1006 13 283
1966234N18169 1966 59 WP MM BETTY 1966-08-23 06:00:00 TS 21.8000 153.600 1004 tokyo main 1970 1932 _OO___________ -1 21.9000 153.500 2 1004 0 0 0 21.7000 153.700 0 1004 12 278
1966234N18169 1966 59 WP MM BETTY 1966-08-23 09:00:00 TS 21.8435 152.935 main 1926 1890 _PP___________ -1 21.9295 152.877 2 1005 0 0 21.7575 152.992 0 1004 12 272
1966234N18169 1966 59 WP MM BETTY 1966-08-23 12:00:00 TS 21.8500 152.300 1006 tokyo main 1881 1846 _OO___________ -1 21.9000 152.300 2 1006 0 0 0 21.8000 152.300 0 1004 11 271
1966234N18169 1966 59 WP MM BETTY 1966-08-23 15:00:00 TS 21.8634 151.700 main 1846 1812 _PP___________ -1 21.8847 151.707 2 1005 0 0 21.8420 151.692 0 1004 11 273
1966234N18169 1966 59 WP MM BETTY 1966-08-23 18:00:00 TS 21.9000 151.100 1004 tokyo main 1812 1779 _OO___________ -1 21.9000 151.100 2 1004 0 0 0 21.9000 151.100 0 1004 12 274
1966234N18169 1966 59 WP MM BETTY 1966-08-23 21:00:00 TS 21.9361 150.457 main 1779 1722 _PP___________ -1 21.9323 150.457 2 1005 0 0 21.9398 150.457 0 1005 12 279
1966234N18169 1966 59 WP MM BETTY 1966-08-24 00:00:00 TS 22.1000 149.800 1006 tokyo main 1722 1652 _OO___________ -1 22.1000 149.800 2 1006 0 0 0 22.1000 149.800 0 1006 13 295
1966234N18169 1966 59 WP MM BETTY 1966-08-24 03:00:00 TS 22.4897 149.158 main 1652 1567 _PP___________ -1 22.4897 149.158 2 1006 0 0 22.4897 149.158 0 1006 15 307
1966234N18169 1966 59 WP MM BETTY 1966-08-24 06:00:00 TS 23.0000 148.500 1006 tokyo main 1567 1483 _OO___________ -1 23.0000 148.500 2 1006 0 0 0 23.0000 148.500 0 1006 16 308
1966234N18169 1966 59 WP MM BETTY 1966-08-24 09:00:00 TS 23.4926 147.785 main 1483 1400 _PP___________ -1 23.4926 147.785 2 1006 0 0 23.4926 147.785 0 1006 16 308
1966234N18169 1966 59 WP MM BETTY 1966-08-24 12:00:00 TS 24.0000 147.100 1006 tokyo main 1400 1322 _OO___________ -1 24.0000 147.100 2 1006 0 0 0 24.0000 147.100 0 1006 15 311
1966234N18169 1966 59 WP MM BETTY 1966-08-24 15:00:00 TS 24.4922 146.505 main 1322 1250 _PP___________ -1 24.4700 146.475 2 1006 0 0 24.5144 146.534 0 1006 14 315
1966234N18169 1966 59 WP MM BETTY 1966-08-24 18:00:00 TS 25.0000 146.000 1006 tokyo main 1250 1186 _OO___________ -1 25.0000 146.000 2 1006 0 0 0 25.0000 146.000 0 1006 13 324
1966234N18169 1966 59 WP MM BETTY 1966-08-24 21:00:00 TS 25.5565 145.651 main 1176 1104 _PP___________ -1 25.7284 145.873 2 1006 0 0 25.3846 145.429 0 1006 13 327
1966234N18169 1966 59 WP MM BETTY 1966-08-25 00:00:00 TS 26.1000 145.200 1006 tokyo main 1104 1030 _OO___________ -1 26.4000 145.600 2 1006 0 0 0 25.8000 144.800 0 1006 16 310
1966234N18169 1966 59 WP MM BETTY 1966-08-25 03:00:00 TS 26.5592 144.304 main 1016 942 _PP___________ -1 26.7328 144.595 2 1005 0 0 26.3857 144.014 0 1006 18 299
1966234N18169 1966 59 WP MM BETTY 1966-08-25 06:00:00 TS 27.0000 143.400 1004 tokyo main 942 876 _OO___________ -1 27.0000 143.500 2 1004 0 0 0 27.0000 143.300 0 1006 15 308
1966234N18169 1966 59 WP MM BETTY 1966-08-25 09:00:00 TS 27.4982 142.966 main 876 810 _PP___________ -1 27.4681 142.954 2 1004 0 0 27.5282 142.978 0 1007 13 323
1966234N18169 1966 59 WP MM BETTY 1966-08-25 12:00:00 TS 28.0000 142.550 1004 tokyo main 810 736 _OO___________ -1 28.0000 142.500 2 1004 0 0 0 28.0000 142.600 0 1008 15 314
1966234N18169 1966 59 WP MM BETTY 1966-08-25 15:00:00 TS 28.5178 141.776 main 736 665 _PP___________ -1 28.5744 141.826 2 1006 0 0 28.4611 141.726 0 1008 17 301
1966234N18169 1966 59 WP MM BETTY 1966-08-25 18:00:00 TS 28.9000 140.850 1008 tokyo main 665 632 _OO___________ -1 29.0000 141.000 2 1008 0 0 0 28.8000 140.700 0 1008 17 288
1966234N18169 1966 59 WP MM BETTY 1966-08-25 21:00:00 TS 29.0364 139.905 main 626 577 _PP___________ -1 29.0909 139.991 2 1008 0 0 28.9819 139.820 0 1008 16 274
1966234N18169 1966 59 WP MM BETTY 1966-08-26 00:00:00 TS 29.0000 139.000 1008 tokyo main 577 549 _OO___________ -1 29.0000 139.000 2 1008 0 0 0 29.0000 139.000 0 1008 15 266
1966234N18169 1966 59 WP MM BETTY 1966-08-26 03:00:00 TS 28.9270 138.211 main 551 540 _PP___________ -1 28.9590 138.241 2 1007 0 0 28.8950 138.182 0 1008 13 259
1966234N18169 1966 59 WP MM BETTY 1966-08-26 06:00:00 TS 28.7500 137.550 1006 tokyo main 540 545 _OO___________ -1 28.8000 137.600 2 1006 0 0 0 28.7000 137.500 0 1008 11 245
1966234N18169 1966 59 WP MM BETTY 1966-08-26 09:00:00 TS 28.4417 137.038 main 569 567 _PP___________ -1 28.3843 136.999 2 1007 0 0 28.4990 137.078 0 1008 11 236
1966234N18169 1966 59 WP MM BETTY 1966-08-26 12:00:00 TS 28.1500 136.550 1008 tokyo main 585 583 _OO___________ -1 28.0000 136.400 2 1008 0 0 0 28.3000 136.700 0 1008 11 247
1966234N18169 1966 59 WP MM BETTY 1966-08-26 15:00:00 TS 28.0300 135.919 main 576 534 _PP___________ -1 27.9403 135.686 2 1008 0 0 28.1198 136.152 0 1008 12 263
1966234N18169 1966 59 WP MM BETTY 1966-08-26 18:00:00 TS 28.0000 135.250 1008 tokyo main 534 489 _OO___________ -1 28.0000 135.000 2 1008 0 0 0 28.0000 135.500 0 1008 12 268
1966234N18169 1966 59 WP MM BETTY 1966-08-26 21:00:00 TS 27.9887 134.603 main 489 454 _PP___________ -1 27.9994 134.470 2 1008 0 0 27.9780 134.735 0 1008 11 270
1966234N18169 1966 59 WP MM BETTY 1966-08-27 00:00:00 TS 28.0000 134.000 1008 tokyo main 454 430 _OO___________ -1 28.0000 134.000 2 1008 0 0 0 28.0000 134.000 1 29 1008 10 269
1966234N18169 1966 59 WP MM BETTY 1966-08-27 03:00:00 TS 27.9732 133.496 main 430 401 _PP___________ -1 27.9621 133.514 2 1008 0 0 27.9842 133.477 1 29 1008 9 270
1966234N18169 1966 59 WP MM BETTY 1966-08-27 06:00:00 TS 28.0000 133.000 1008 tokyo main 401 362 _OO___________ -1 28.0000 133.000 2 1008 0 0 0 28.0000 133.000 1 29 1008 10 281
1966234N18169 1966 59 WP MM BETTY 1966-08-27 09:00:00 TS 28.1524 132.415 main 352 319 _PP___________ -1 28.2274 132.416 2 1008 0 0 28.0774 132.415 1 29 1008 11 288
1966234N18169 1966 59 WP MM BETTY 1966-08-27 12:00:00 TS 28.3500 131.800 1008 tokyo main 308 283 _OO___________ -1 28.5000 131.800 2 1008 0 0 0 28.2000 131.800 1 29 1008 11 288
1966234N18169 1966 59 WP MM BETTY 1966-08-27 15:00:00 TS 28.4961 131.192 main 283 267 _PP___________ -1 28.6648 131.192 2 1007 0 0 28.3273 131.192 1 29 1007 11 286
1966234N18169 1966 59 WP MM BETTY 1966-08-27 18:00:00 TS 28.6500 130.600 1007 tokyo main 256 241 _OO___________ -1 28.8000 130.600 2 1007 0 0 0 28.5000 130.600 1 29 1006 11 290
1966234N18169 1966 59 WP MM BETTY 1966-08-27 21:00:00 TS 28.8644 130.061 main 241 239 _PP___________ -1 28.9793 130.073 2 1007 0 0 28.7496 130.050 1 29 1006 10 293
1966234N18169 1966 59 WP MM BETTY 1966-08-28 00:00:00 TS 29.0500 129.500 1008 tokyo main 241 241 _OO___________ -1 29.1000 129.500 2 1008 0 0 0 29.0000 129.500 1 29 1006 11 282
1966234N18169 1966 59 WP MM BETTY 1966-08-28 03:00:00 TS 29.0969 128.787 main 270 270 _PP___________ -1 29.0359 128.711 2 1006 0 0 29.1578 128.862 1 29 1006 12 275
1966234N18169 1966 59 WP MM BETTY 1966-08-28 06:00:00 TS 29.1500 128.150 1004 tokyo main 294 300 _OO___________ -1 29.0000 128.000 2 1004 0 0 0 29.3000 128.300 1 29 1006 9 285
1966234N18169 1966 59 WP MM BETTY 1966-08-28 09:00:00 TS 29.3256 127.790 main 312 305 _PP___________ -1 29.1743 127.618 2 1002 0 0 29.4770 127.962 1 29 1003 7 311
1966234N18169 1966 59 WP MM BETTY 1966-08-28 12:00:00 TS 29.6000 127.550 1000 tokyo main 306 306 _OO___________ -1 29.5000 127.400 2 1000 0 0 0 29.7000 127.700 1 29 1000 8 323
1966234N18169 1966 59 WP MM BETTY 1966-08-28 15:00:00 TS 29.9525 127.253 main 307 307 _PP___________ -1 29.9349 127.178 2 998 0 0 29.9702 127.328 1 33 998 9 328
1966234N18169 1966 59 WP MM BETTY 1966-08-28 18:00:00 TS 30.3500 127.000 996 tokyo main 314 279 _OO___________ -1 30.4000 127.000 2 996 0 0 0 30.3000 127.000 2 38 996 9 335
1966234N18169 1966 59 WP MM BETTY 1966-08-28 21:00:00 TS 30.7361 126.831 main 279 234 _PP___________ -1 30.7725 126.835 2 995 0 0 30.6998 126.827 2 38 995 8 341
1966234N18169 1966 59 WP MM BETTY 1966-08-29 00:00:00 TS 31.1000 126.700 994 tokyo main 234 200 _OO___________ -1 31.1000 126.700 9 994 0 0 0 31.1000 126.700 2 38 994 7 340
1966234N18169 1966 59 WP MM BETTY 1966-08-29 03:00:00 TS 31.4113 126.546 main 200 167 _PP___________ -1 31.4074 126.600 9 992 0 0 31.4151 126.493 2 43 993 7 337
1966234N18169 1966 59 WP MM BETTY 1966-08-29 06:00:00 TS 31.7000 126.400 990 tokyo main 167 133 _OO___________ -1 31.7000 126.500 9 990 0 0 0 31.7000 126.300 3 48 992 6 337
1966234N18169 1966 59 WP MM BETTY 1966-08-29 09:00:00 TS 31.9925 126.253 main 133 111 _PP___________ -1 31.9926 126.335 9 989 0 0 31.9925 126.170 3 48 990 5 338
1966234N18169 1966 59 WP MM BETTY 1966-08-29 12:00:00 TS 32.1846 126.169 988 tokyo main 111 78 OOOO_____OOO__ jtwc_wp WP161966 32.0000 126.200 50 0 32.3000 126.200 9 988 0 0 0 32.3000 126.100 3 48 988 32.0000 126.200 TS 40 988 32.0000 126.200 TC 50 32.0000 126.200 2 50 32.0000 126.200 50 991 180 5 353
1966234N18169 1966 59 WP MM BETTY 1966-08-29 15:00:00 TS 32.5086 126.169 main 78 34 PPPP_____PPP__ WP161966 32.3875 126.193 55 0 32.6425 126.177 9 987 0 0 32.6425 126.077 3 48 987 32.4200 126.212 TS 42 987 32.3875 126.193 TC 55 32.4250 126.225 2 52 32.3875 126.193 55 989 180 7 0
1966234N18169 1966 59 WP MM BETTY 1966-08-29 18:00:00 TS 32.8761 126.189 986 tokyo main 34 9 OOOO_____OPO__ jtwc_wp WP161966 32.8000 126.200 60 0 33.0000 126.200 9 986 0 0 0 33.0000 126.100 3 48 986 32.8000 126.200 TS 45 987 32.8000 126.200 TC 60 32.8500 126.250 2 55 32.8000 126.200 60 987 180 8 3
1966234N18169 1966 59 WP MM BETTY 1966-08-29 21:00:00 TS 33.2653 126.205 main 0 0 PPPP_____PPP__ WP161966 33.2500 126.235 60 0 33.3349 126.163 9 987 0 0 33.3575 126.128 3 48 987 33.1399 126.163 TS 45 986 33.2500 126.235 TC 60 33.2751 126.275 2 57 33.2500 126.235 60 986 180 8 4
1966234N18169 1966 59 WP MM BETTY 1966-08-30 00:00:00 TS 33.6857 126.257 988 tokyo main 22 22 OOOO_____OOO__ jtwc_wp WP161966 33.7000 126.300 60 0 33.7000 126.200 9 988 0 0 0 33.7000 126.200 3 48 988 33.6000 126.200 TS 45 986 33.7000 126.300 TC 60 33.7000 126.300 2 60 33.7000 126.300 60 985 180 9 10
1966234N18169 1966 59 WP MM BETTY 1966-08-30 03:00:00 TS 34.1440 126.389 main 24 0 PPPP_____PPP__ WP161966 34.1150 126.385 55 0 34.1576 126.412 9 990 0 0 34.0150 126.327 3 48 990 34.4151 126.404 TS 42 987 34.1150 126.385 TC 55 34.0752 126.423 2 55 34.1150 126.385 55 986 150 9 16
1966234N18169 1966 59 WP MM BETTY 1966-08-30 06:00:00 TS 34.5596 126.559 992 tokyo main 0 0 OOOO_____OPO__ jtwc_wp WP161966 34.5000 126.500 50 0 34.6000 126.700 9 992 0 0 0 34.3000 126.500 3 48 992 35.2000 126.700 TS 40 988 34.5000 126.500 TC 50 34.4503 126.548 2 50 34.5000 126.500 50 987 120 8 20
1966234N18169 1966 59 WP MM BETTY 1966-08-30 09:00:00 TS 34.8841 126.716 main 0 0 PPPP_____PPP__ WP161966 34.8648 126.613 45 0 34.9374 126.943 9 993 0 0 34.5499 126.678 3 43 993 35.6200 127.003 TS 37 991 34.8648 126.613 TC 45 34.8252 126.673 2 45 34.8648 126.613 45 989 120 7 28
1966234N18169 1966 59 WP MM BETTY 1966-08-30 12:00:00 TS 35.1474 126.932 994 tokyo main 0 0 OOOO_____OOO__ jtwc_wp WP161966 35.2000 126.800 40 0 35.2000 127.200 9 994 0 0 0 34.8000 126.900 2 38 994 35.8000 127.300 TS 35 994 35.2000 126.800 TC 40 35.2000 126.800 2 40 35.2000 126.800 40 992 120 6 41
1966234N18169 1966 59 WP MM BETTY 1966-08-30 15:00:00 TS 35.3539 127.225 main 0 0 PPP______P_P__ WP161966 35.5079 127.112 35 0 35.3845 127.449 9 996 0 0 35.0924 127.170 2 33 996 TS 35.5079 127.112 TC 35 2 35.5079 127.112 35 994 120 7 52
1966234N18169 1966 59 WP MM BETTY 1966-08-30 18:00:00 TS 35.5818 127.609 998 tokyo main 0 0 OOO______O_O__ jtwc_wp WP161966 35.8000 127.500 30 -1 35.6000 127.800 9 998 0 0 0 35.4000 127.500 1 29 998 35.8000 127.500 TC 30 2 35.8000 127.500 30 996 120 9 56
1966234N18169 1966 59 WP MM BETTY 1966-08-30 21:00:00 TS 35.8313 128.109 main 0 0 _PP___________ WP161966 -1 35.9855 128.369 9 999 0 0 35.6771 127.849 1 29 999 TC 2 10 54
1966234N18169 1966 59 WP MM BETTY 1966-08-31 00:00:00 TS 36.2000 128.650 1000 tokyo main 0 0 _OO___________ -1 36.4000 129.000 2 1000 0 0 0 36.0000 128.300 1 29 1000 11 50
1966234N18169 1966 59 WP MM BETTY 1966-08-31 03:00:00 TS 36.5480 129.178 main 0 0 _PP___________ -1 36.6840 129.480 2 1001 0 0 36.4120 128.876 1 29 1001 12 51
1966234N18169 1966 59 WP MM BETTY 1966-08-31 06:00:00 TS 36.9500 129.800 1002 tokyo main 35 35 _OO___________ -1 37.0000 130.000 2 1002 0 0 0 36.9000 129.600 1 29 1002 15 51
1966234N18169 1966 59 WP MM BETTY 1966-08-31 09:00:00 TS 37.4642 130.602 main 114 114 _PP___________ -1 37.4705 130.727 2 1002 0 0 37.4579 130.477 1 26 1002 17 51
1966234N18169 1966 59 WP MM BETTY 1966-08-31 12:00:00 TS 38.0000 131.450 1002 tokyo main 208 208 _OO___________ -1 38.0000 131.500 2 1002 0 0 0 38.0000 131.400 1 23 1002 16 50
1966234N18169 1966 59 WP MM BETTY 1966-08-31 15:00:00 TS 38.4774 132.114 main 276 276 _PP___________ -1 38.5345 132.062 2 1003 0 0 38.4204 132.165 1 23 1003 14 52
1966234N18169 1966 59 WP MM BETTY 1966-08-31 18:00:00 TS 38.9000 132.900 1004 tokyo main 344 315 _OO___________ -1 39.0000 132.800 2 1004 0 0 0 38.8000 133.000 1 23 1004 17 63
1966234N18169 1966 59 WP MM BETTY 1966-08-31 21:00:00 TS 39.2435 134.039 main 315 267 _PP___________ -1 39.2589 134.048 2 1005 0 0 39.2280 134.030 1 23 1005 20 71
1966234N18169 1966 59 WP MM BETTY 1966-09-01 00:00:00 ET 39.5500 135.400 1007 tokyo main 273 246 _OO___________ -1 39.5000 135.500 6 1007 0 0 0 39.6000 135.300 9 23 1007 23 74
1966234N18169 1966 59 WP MM BETTY 1966-09-01 03:00:00 ET 39.8753 136.865 main 238 123 _PP___________ -1 39.9332 136.842 6 1005 0 0 39.8173 136.887 9 23 1005 24 74
1966234N18169 1966 59 WP MM BETTY 1966-09-01 06:00:00 ET 40.2000 138.350 1004 tokyo main 115 27 _OO___________ -1 40.4000 138.200 6 1004 0 0 0 40.0000 138.500 9 23 1004 22 74
1966234N18169 1966 59 WP MM BETTY 1966-09-01 09:00:00 ET 40.5068 139.674 main 20 0 _PP___________ -1 40.7855 139.579 6 1002 0 0 40.2281 139.770 9 26 1002 21 72
1966234N18169 1966 59 WP MM BETTY 1966-09-01 12:00:00 ET 40.8500 141.000 1000 tokyo main 0 0 _OO___________ -1 41.1000 141.000 6 1000 0 0 0 40.6000 141.000 9 29 1000 23 72
1966234N18169 1966 59 WP MM BETTY 1966-09-01 15:00:00 ET 41.2274 142.535 main 91 46 _PP___________ -1 41.2487 142.565 6 1001 0 0 41.2061 142.504 9 26 1001 24 69
1966234N18169 1966 59 WP MM BETTY 1966-09-01 18:00:00 ET 41.7000 144.000 1002 tokyo main 66 66 _OO___________ -1 41.5000 144.000 6 1002 0 0 0 41.9000 144.000 9 23 1002 22 60
1966234N18169 1966 59 WP MM BETTY 1966-09-01 21:00:00 ET 42.3344 145.117 main 71 46 _PP___________ -1 42.1422 145.001 6 1004 0 0 42.5267 145.233 9 23 1003 21 51
1966234N18169 1966 59 WP MM BETTY 1966-09-02 00:00:00 ET 43.0000 146.200 1007 tokyo main 58 58 _OO___________ -1 42.9000 146.000 6 1007 0 0 0 43.1000 146.400 9 23 1004 22 57
1966234N18169 1966 59 WP MM BETTY 1966-09-02 03:00:00 ET 43.5202 147.605 main 121 118 _PP___________ -1 43.4830 147.492 6 1006 0 0 43.5575 147.718 9 23 1004 23 64
1966234N18169 1966 59 WP MM BETTY 1966-09-02 06:00:00 ET 44.0000 149.000 1006 tokyo main 141 131 _OO___________ -1 44.0000 149.000 6 1006 0 0 0 44.0000 149.000 9 23 1004 20 62
1966234N18169 1966 59 WP MM BETTY 1966-09-02 09:00:00 ET 44.4497 150.080 main 136 115 _PP___________ -1 44.4277 150.068 6 1005 0 0 44.4718 150.092 9 23 1004 19 56
1966234N18169 1966 59 WP MM BETTY 1966-09-02 12:00:00 ET 45.0500 151.150 1004 tokyo main 121 115 _OO___________ -1 45.0000 151.100 6 1004 0 0 0 45.1000 151.200 9 23 1004 23 50
1966234N18169 1966 59 WP MM BETTY 1966-09-02 15:00:00 ET 45.9561 152.581 main 169 169 _PP___________ -1 45.9277 152.551 6 1004 0 0 45.9844 152.611 9 23 1004 28 45
1966234N18169 1966 59 WP MM BETTY 1966-09-02 18:00:00 ET 47.0000 154.000 1004 tokyo main 291 223 _OO___________ -1 47.0000 154.000 6 1004 0 0 0 47.0000 154.000 9 23 1004 27 38
1966234N18169 1966 59 WP MM BETTY 1966-09-02 21:00:00 ET 48.0516 155.010 main 212 116 _PP___________ -1 48.0552 155.014 6 1004 0 0 48.0480 155.006 9 23 1004 24 34
1966234N18169 1966 59 WP MM BETTY 1966-09-03 00:00:00 ET 49.0000 156.000 1004 tokyo main 119 108 _OO___________ -1 49.0000 156.000 6 1004 0 0 0 49.0000 156.000 9 23 1004 22 47
1966234N18169 1966 59 WP MM BETTY 1966-09-03 03:00:00 ET 49.5737 157.466 main 132 132 _PP___________ -1 49.5737 157.466 6 1005 0 0 49.5737 157.466 9 23 1005 22 57
1966234N18169 1966 59 WP MM BETTY 1966-09-03 06:00:00 ET 50.2000 158.800 1006 tokyo main 160 105 _OO___________ -1 50.2000 158.800 6 1006 0 0 0 50.2000 158.800 9 23 1006 22 35
1966234N18169 1966 59 WP MM BETTY 1966-09-03 09:00:00 ET 51.3570 159.411 main 99 67 _PP___________ -1 51.3570 159.411 6 1006 0 0 51.3570 159.411 9 23 1006 25 17
1966234N18169 1966 59 WP MM BETTY 1966-09-03 12:00:00 ET 52.6000 160.000 1007 tokyo main 55 25 _OO___________ -1 52.6000 160.000 6 1007 0 0 0 52.6000 160.000 9 23 1006 24 29
1966234N18169 1966 59 WP MM BETTY 1966-09-03 15:00:00 ET 53.4901 161.372 main 92 67 _PP___________ -1 53.4563 161.467 6 1006 0 0 53.5577 161.184 9 23 1006 24 44
1966234N18169 1966 59 WP MM BETTY 1966-09-03 18:00:00 ET 54.3000 162.800 1006 tokyo main 63 51 _OO___________ -1 54.3000 162.800 6 1006 0 0 0 54.3000 162.800 9 23 1006 22 23
1966234N18169 1966 59 WP MM BETTY 1966-09-03 21:00:00 ET 55.4926 162.845 main 56 0 _P____________ -1 55.4926 162.845 6 1004 0 0 9 24 3
1966234N18169 1966 59 WP MM BETTY 1966-09-04 00:00:00 ET 56.7000 163.000 1002 tokyo main 6 6 _O____________ -1 56.7000 163.000 6 1002 0 0 0 24 25
1966234N18169 1966 59 WP MM BETTY 1966-09-04 03:00:00 ET 57.6607 164.692 main 82 82 _P____________ -1 57.6607 164.692 6 1003 0 0 27 52
1966234N18169 1966 59 WP MM BETTY 1966-09-04 06:00:00 ET 58.4000 167.000 1004 tokyo main 147 126 _O____________ -1 58.4000 167.000 6 1004 0 0 0 26 60
1966234N18169 1966 59 WP MM BETTY 1966-09-04 09:00:00 ET 58.9789 169.044 main 123 64 _P____________ -1 58.9789 169.044 6 1005 0 0 23 65
1966234N18169 1966 59 WP MM BETTY 1966-09-04 12:00:00 ET 59.4000 171.100 1006 tokyo main 71 71 _O____________ -1 59.4000 171.100 6 1006 0 0 0 22 70
1966234N18169 1966 59 WP MM BETTY 1966-09-04 15:00:00 ET 59.7294 173.184 main 135 131 _P____________ -1 59.7294 173.184 6 1006 0 0 22 74
1966234N18169 1966 59 WP MM BETTY 1966-09-04 18:00:00 ET 60.0000 175.300 1006 tokyo main 188 _O____________ -1 60.0000 175.300 6 1006 0 0 0 22 76

Digital Typhoon Data and Search

About IBTrACS Database

This database is a web-friendly format of International Best Track Archive for Climate Stewardship (IBTrACS), a global best track data archive curated by NOAA dating back to 1842.

Updated: 2021-10-08